sensor_id;sensor_type;location;lat;lon;timestamp;P1;durP1;ratioP1;P2;durP2;ratioP2
70008;SDS011;59542;37.950;-122.338;2023-11-19T00:00:57;11.27;;;3.17;;
70008;SDS011;59542;37.950;-122.338;2023-11-19T00:03:23;8.13;;;3.63;;
70008;SDS011;59542;37.950;-122.338;2023-11-19T00:05:50;11.57;;;4.05;;
70008;SDS011;59542;37.950;-122.338;2023-11-19T00:08:16;9.90;;;3.13;;
70008;SDS011;59542;37.950;-122.338;2023-11-19T00:10:42;9.68;;;3.08;;
70008;SDS011;59542;37.950;-122.338;2023-11-19T00:13:08;11.75;;;3.22;;
70008;SDS011;59542;37.950;-122.338;2023-11-19T00:15:35;12.88;;;3.13;;
70008;SDS011;59542;37.950;-122.338;2023-11-19T00:18:01;7.20;;;2.85;;
70008;SDS011;59542;37.950;-122.338;2023-11-19T00:20:31;9.05;;;3.10;;
70008;SDS011;59542;37.950;-122.338;2023-11-19T00:22:57;12.32;;;3.05;;
70008;SDS011;59542;37.950;-122.338;2023-11-19T00:25:23;11.05;;;3.22;;
70008;SDS011;59542;37.950;-122.338;2023-11-19T00:27:50;10.38;;;2.88;;
70008;SDS011;59542;37.950;-122.338;2023-11-19T00:30:18;16.63;;;3.92;;
70008;SDS011;59542;37.950;-122.338;2023-11-19T00:32:44;9.10;;;3.10;;
70008;SDS011;59542;37.950;-122.338;2023-11-19T00:35:11;9.43;;;3.38;;
70008;SDS011;59542;37.950;-122.338;2023-11-19T00:37:39;7.70;;;2.85;;
70008;SDS011;59542;37.950;-122.338;2023-11-19T00:40:05;9.73;;;3.03;;
70008;SDS011;59542;37.950;-122.338;2023-11-19T00:42:32;8.48;;;3.35;;
70008;SDS011;59542;37.950;-122.338;2023-11-19T00:44:58;10.27;;;3.17;;
70008;SDS011;59542;37.950;-122.338;2023-11-19T00:47:26;12.82;;;3.55;;
70008;SDS011;59542;37.950;-122.338;2023-11-19T00:49:53;7.68;;;2.75;;
70008;SDS011;59542;37.950;-122.338;2023-11-19T00:52:19;7.78;;;2.90;;
70008;SDS011;59542;37.950;-122.338;2023-11-19T00:54:47;11.98;;;3.53;;
70008;SDS011;59542;37.950;-122.338;2023-11-19T00:57:13;15.93;;;3.30;;
70008;SDS011;59542;37.950;-122.338;2023-11-19T00:59:42;9.23;;;3.05;;
70008;SDS011;59542;37.950;-122.338;2023-11-19T01:02:09;9.32;;;3.30;;
70008;SDS011;59542;37.950;-122.338;2023-11-19T01:04:35;10.85;;;3.25;;
70008;SDS011;59542;37.950;-122.338;2023-11-19T01:07:02;10.27;;;3.20;;
70008;SDS011;59542;37.950;-122.338;2023-11-19T01:09:32;12.40;;;3.28;;
70008;SDS011;59542;37.950;-122.338;2023-11-19T01:12:00;11.15;;;2.80;;
70008;SDS011;59542;37.950;-122.338;2023-11-19T01:14:27;9.80;;;3.30;;
70008;SDS011;59542;37.950;-122.338;2023-11-19T01:16:54;10.85;;;3.08;;
70008;SDS011;59542;37.950;-122.338;2023-11-19T01:19:23;12.55;;;3.33;;
70008;SDS011;59542;37.950;-122.338;2023-11-19T01:21:50;9.50;;;2.78;;
70008;SDS011;59542;37.950;-122.338;2023-11-19T01:24:17;7.78;;;2.70;;
70008;SDS011;59542;37.950;-122.338;2023-11-19T01:26:43;10.90;;;2.85;;
70008;SDS011;59542;37.950;-122.338;2023-11-19T01:29:13;6.00;;;2.70;;
70008;SDS011;59542;37.950;-122.338;2023-11-19T01:31:43;15.15;;;3.35;;
70008;SDS011;59542;37.950;-122.338;2023-11-19T01:34:11;4.78;;;2.13;;
70008;SDS011;59542;37.950;-122.338;2023-11-19T01:36:38;9.05;;;3.40;;
70008;SDS011;59542;37.950;-122.338;2023-11-19T01:39:04;11.13;;;3.22;;
70008;SDS011;59542;37.950;-122.338;2023-11-19T01:41:34;8.98;;;3.10;;
70008;SDS011;59542;37.950;-122.338;2023-11-19T01:44:01;16.02;;;4.25;;
70008;SDS011;59542;37.950;-122.338;2023-11-19T01:46:27;15.55;;;3.30;;
70008;SDS011;59542;37.950;-122.338;2023-11-19T01:48:55;11.75;;;3.33;;
70008;SDS011;59542;37.950;-122.338;2023-11-19T01:51:21;14.85;;;3.70;;
70008;SDS011;59542;37.950;-122.338;2023-11-19T01:53:50;9.00;;;3.58;;
70008;SDS011;59542;37.950;-122.338;2023-11-19T01:56:17;10.15;;;2.92;;
70008;SDS011;59542;37.950;-122.338;2023-11-19T01:58:44;10.60;;;3.00;;
70008;SDS011;59542;37.950;-122.338;2023-11-19T02:01:11;10.25;;;3.38;;
70008;SDS011;59542;37.950;-122.338;2023-11-19T02:03:39;10.07;;;3.45;;
70008;SDS011;59542;37.950;-122.338;2023-11-19T02:06:05;9.63;;;2.53;;
70008;SDS011;59542;37.950;-122.338;2023-11-19T02:08:32;10.82;;;2.80;;
70008;SDS011;59542;37.950;-122.338;2023-11-19T02:10:59;10.77;;;3.25;;
70008;SDS011;59542;37.950;-122.338;2023-11-19T02:13:25;8.40;;;2.53;;
70008;SDS011;59542;37.950;-122.338;2023-11-19T02:15:52;7.95;;;3.25;;
70008;SDS011;59542;37.950;-122.338;2023-11-19T02:18:22;6.38;;;2.50;;
70008;SDS011;59542;37.950;-122.338;2023-11-19T02:20:53;5.80;;;2.17;;
70008;SDS011;59542;37.950;-122.338;2023-11-19T02:23:21;7.75;;;2.40;;
70008;SDS011;59542;37.950;-122.338;2023-11-19T02:25:51;6.25;;;2.85;;
70008;SDS011;59542;37.950;-122.338;2023-11-19T02:28:27;8.05;;;3.05;;
70008;SDS011;59542;37.950;-122.338;2023-11-19T02:30:54;8.70;;;2.85;;
70008;SDS011;59542;37.950;-122.338;2023-11-19T02:33:20;5.50;;;2.67;;
70008;SDS011;59542;37.950;-122.338;2023-11-19T02:35:46;7.78;;;3.00;;
70008;SDS011;59542;37.950;-122.338;2023-11-19T02:38:12;10.32;;;3.05;;
70008;SDS011;59542;37.950;-122.338;2023-11-19T02:40:39;9.18;;;3.28;;
70008;SDS011;59542;37.950;-122.338;2023-11-19T02:43:05;14.13;;;3.65;;
70008;SDS011;59542;37.950;-122.338;2023-11-19T02:45:32;6.75;;;2.45;;
70008;SDS011;59542;37.950;-122.338;2023-11-19T02:47:58;13.18;;;3.58;;
70008;SDS011;59542;37.950;-122.338;2023-11-19T02:50:27;8.07;;;3.05;;
70008;SDS011;59542;37.950;-122.338;2023-11-19T02:52:53;9.95;;;2.92;;
70008;SDS011;59542;37.950;-122.338;2023-11-19T02:55:24;11.00;;;3.03;;
70008;SDS011;59542;37.950;-122.338;2023-11-19T02:57:53;15.10;;;3.65;;
70008;SDS011;59542;37.950;-122.338;2023-11-19T03:00:22;7.25;;;2.53;;
70008;SDS011;59542;37.950;-122.338;2023-11-19T03:03:01;13.20;;;2.40;;
70008;SDS011;59542;37.950;-122.338;2023-11-19T03:05:46;6.50;;;2.47;;
70008;SDS011;59542;37.950;-122.338;2023-11-19T03:08:12;6.88;;;1.98;;
70008;SDS011;59542;37.950;-122.338;2023-11-19T03:10:39;7.43;;;2.67;;
70008;SDS011;59542;37.950;-122.338;2023-11-19T03:13:05;10.82;;;3.25;;
70008;SDS011;59542;37.950;-122.338;2023-11-19T03:15:39;9.75;;;2.95;;
70008;SDS011;59542;37.950;-122.338;2023-11-19T03:18:06;9.23;;;2.80;;
70008;SDS011;59542;37.950;-122.338;2023-11-19T03:20:32;8.48;;;2.22;;
70008;SDS011;59542;37.950;-122.338;2023-11-19T03:22:59;14.30;;;3.15;;
70008;SDS011;59542;37.950;-122.338;2023-11-19T03:25:27;6.80;;;2.08;;
70008;SDS011;59542;37.950;-122.338;2023-11-19T03:27:58;7.25;;;2.55;;
70008;SDS011;59542;37.950;-122.338;2023-11-19T03:30:26;7.25;;;1.77;;
70008;SDS011;59542;37.950;-122.338;2023-11-19T03:32:54;4.45;;;2.17;;
70008;SDS011;59542;37.950;-122.338;2023-11-19T03:35:20;7.63;;;2.78;;
70008;SDS011;59542;37.950;-122.338;2023-11-19T03:37:47;4.22;;;2.35;;
70008;SDS011;59542;37.950;-122.338;2023-11-19T03:40:13;6.10;;;2.67;;
70008;SDS011;59542;37.950;-122.338;2023-11-19T03:42:40;7.35;;;3.58;;
70008;SDS011;59542;37.950;-122.338;2023-11-19T03:45:09;7.88;;;3.10;;
70008;SDS011;59542;37.950;-122.338;2023-11-19T03:47:35;9.30;;;2.05;;
70008;SDS011;59542;37.950;-122.338;2023-11-19T03:50:01;7.32;;;3.03;;
70008;SDS011;59542;37.950;-122.338;2023-11-19T03:52:28;5.45;;;2.05;;
70008;SDS011;59542;37.950;-122.338;2023-11-19T03:54:55;4.35;;;1.92;;
70008;SDS011;59542;37.950;-122.338;2023-11-19T03:57:22;6.90;;;2.80;;
70008;SDS011;59542;37.950;-122.338;2023-11-19T03:59:49;6.45;;;2.15;;
70008;SDS011;59542;37.950;-122.338;2023-11-19T04:02:16;13.50;;;2.88;;
70008;SDS011;59542;37.950;-122.338;2023-11-19T04:04:42;5.70;;;2.13;;
70008;SDS011;59542;37.950;-122.338;2023-11-19T04:07:09;4.30;;;1.98;;
70008;SDS011;59542;37.950;-122.338;2023-11-19T04:09:35;8.32;;;2.38;;
70008;SDS011;59542;37.950;-122.338;2023-11-19T04:12:03;5.07;;;2.50;;
70008;SDS011;59542;37.950;-122.338;2023-11-19T04:14:29;7.50;;;2.35;;
70008;SDS011;59542;37.950;-122.338;2023-11-19T04:16:56;8.65;;;2.75;;
70008;SDS011;59542;37.950;-122.338;2023-11-19T04:19:22;6.05;;;1.83;;
70008;SDS011;59542;37.950;-122.338;2023-11-19T04:21:48;6.57;;;1.80;;
70008;SDS011;59542;37.950;-122.338;2023-11-19T04:24:14;5.38;;;1.63;;
70008;SDS011;59542;37.950;-122.338;2023-11-19T04:26:41;7.03;;;2.15;;
70008;SDS011;59542;37.950;-122.338;2023-11-19T04:29:13;8.40;;;2.00;;
70008;SDS011;59542;37.950;-122.338;2023-11-19T04:31:42;5.55;;;2.15;;
70008;SDS011;59542;37.950;-122.338;2023-11-19T04:34:09;8.13;;;2.25;;
70008;SDS011;59542;37.950;-122.338;2023-11-19T04:36:36;8.90;;;3.40;;
70008;SDS011;59542;37.950;-122.338;2023-11-19T04:39:03;9.48;;;3.55;;
70008;SDS011;59542;37.950;-122.338;2023-11-19T04:41:49;8.73;;;2.90;;
70008;SDS011;59542;37.950;-122.338;2023-11-19T04:44:17;8.40;;;2.90;;
70008;SDS011;59542;37.950;-122.338;2023-11-19T04:46:43;10.98;;;3.50;;
70008;SDS011;59542;37.950;-122.338;2023-11-19T04:49:10;11.38;;;2.92;;
70008;SDS011;59542;37.950;-122.338;2023-11-19T04:51:39;15.27;;;3.90;;
70008;SDS011;59542;37.950;-122.338;2023-11-19T04:54:07;25.70;;;4.93;;
70008;SDS011;59542;37.950;-122.338;2023-11-19T04:56:34;11.48;;;3.35;;
70008;SDS011;59542;37.950;-122.338;2023-11-19T04:59:02;16.05;;;3.75;;
70008;SDS011;59542;37.950;-122.338;2023-11-19T05:01:31;10.70;;;3.97;;
70008;SDS011;59542;37.950;-122.338;2023-11-19T05:03:58;17.63;;;4.47;;
70008;SDS011;59542;37.950;-122.338;2023-11-19T05:06:28;12.07;;;4.57;;
70008;SDS011;59542;37.950;-122.338;2023-11-19T05:08:58;17.75;;;5.03;;
70008;SDS011;59542;37.950;-122.338;2023-11-19T05:11:35;19.33;;;4.72;;
70008;SDS011;59542;37.950;-122.338;2023-11-19T05:14:05;18.73;;;4.45;;
70008;SDS011;59542;37.950;-122.338;2023-11-19T05:16:31;10.35;;;3.55;;
70008;SDS011;59542;37.950;-122.338;2023-11-19T05:18:57;17.58;;;5.53;;
70008;SDS011;59542;37.950;-122.338;2023-11-19T05:21:24;19.15;;;5.15;;
70008;SDS011;59542;37.950;-122.338;2023-11-19T05:23:50;22.90;;;5.85;;
70008;SDS011;59542;37.950;-122.338;2023-11-19T05:26:20;16.20;;;5.20;;
70008;SDS011;59542;37.950;-122.338;2023-11-19T05:28:47;14.80;;;4.47;;
70008;SDS011;59542;37.950;-122.338;2023-11-19T05:31:15;18.67;;;5.28;;
70008;SDS011;59542;37.950;-122.338;2023-11-19T05:33:42;23.63;;;5.63;;
70008;SDS011;59542;37.950;-122.338;2023-11-19T05:36:10;20.05;;;5.43;;
70008;SDS011;59542;37.950;-122.338;2023-11-19T05:38:38;19.98;;;5.63;;
70008;SDS011;59542;37.950;-122.338;2023-11-19T05:41:04;21.05;;;5.57;;
70008;SDS011;59542;37.950;-122.338;2023-11-19T05:43:31;18.50;;;5.70;;
70008;SDS011;59542;37.950;-122.338;2023-11-19T05:45:57;14.30;;;4.70;;
70008;SDS011;59542;37.950;-122.338;2023-11-19T05:48:25;18.27;;;5.40;;
70008;SDS011;59542;37.950;-122.338;2023-11-19T05:50:52;19.40;;;6.38;;
70008;SDS011;59542;37.950;-122.338;2023-11-19T05:53:18;17.67;;;5.55;;
70008;SDS011;59542;37.950;-122.338;2023-11-19T05:55:45;18.25;;;6.13;;
70008;SDS011;59542;37.950;-122.338;2023-11-19T05:58:22;15.88;;;5.15;;
70008;SDS011;59542;37.950;-122.338;2023-11-19T06:00:51;30.45;;;6.35;;
70008;SDS011;59542;37.950;-122.338;2023-11-19T06:03:18;22.27;;;5.72;;
70008;SDS011;59542;37.950;-122.338;2023-11-19T06:05:44;24.35;;;5.07;;
70008;SDS011;59542;37.950;-122.338;2023-11-19T06:08:11;11.80;;;4.93;;
70008;SDS011;59542;37.950;-122.338;2023-11-19T06:10:41;19.30;;;5.70;;
70008;SDS011;59542;37.950;-122.338;2023-11-19T06:13:08;23.15;;;5.05;;
70008;SDS011;59542;37.950;-122.338;2023-11-19T06:15:35;19.15;;;6.03;;
70008;SDS011;59542;37.950;-122.338;2023-11-19T06:18:02;21.83;;;6.68;;
70008;SDS011;59542;37.950;-122.338;2023-11-19T06:20:29;24.70;;;5.22;;
70008;SDS011;59542;37.950;-122.338;2023-11-19T06:22:57;19.33;;;5.10;;
70008;SDS011;59542;37.950;-122.338;2023-11-19T06:25:23;16.05;;;5.40;;
70008;SDS011;59542;37.950;-122.338;2023-11-19T06:27:50;15.13;;;5.47;;
70008;SDS011;59542;37.950;-122.338;2023-11-19T06:30:17;20.05;;;5.80;;
70008;SDS011;59542;37.950;-122.338;2023-11-19T06:32:44;24.23;;;5.70;;
70008;SDS011;59542;37.950;-122.338;2023-11-19T06:35:10;16.38;;;5.32;;
70008;SDS011;59542;37.950;-122.338;2023-11-19T06:37:39;28.30;;;5.65;;
70008;SDS011;59542;37.950;-122.338;2023-11-19T06:40:07;18.85;;;5.47;;
70008;SDS011;59542;37.950;-122.338;2023-11-19T06:42:37;21.40;;;5.68;;
70008;SDS011;59542;37.950;-122.338;2023-11-19T06:45:04;32.55;;;6.82;;
70008;SDS011;59542;37.950;-122.338;2023-11-19T06:47:31;20.60;;;5.70;;
70008;SDS011;59542;37.950;-122.338;2023-11-19T06:49:58;21.02;;;5.53;;
70008;SDS011;59542;37.950;-122.338;2023-11-19T06:52:24;13.98;;;5.20;;
70008;SDS011;59542;37.950;-122.338;2023-11-19T06:54:50;21.15;;;4.90;;
70008;SDS011;59542;37.950;-122.338;2023-11-19T06:57:17;13.82;;;5.03;;
70008;SDS011;59542;37.950;-122.338;2023-11-19T06:59:43;16.38;;;4.57;;
70008;SDS011;59542;37.950;-122.338;2023-11-19T07:02:09;20.45;;;5.20;;
70008;SDS011;59542;37.950;-122.338;2023-11-19T07:04:35;26.02;;;6.22;;
70008;SDS011;59542;37.950;-122.338;2023-11-19T07:07:02;23.52;;;5.32;;
70008;SDS011;59542;37.950;-122.338;2023-11-19T07:09:28;19.30;;;5.13;;
70008;SDS011;59542;37.950;-122.338;2023-11-19T07:11:55;18.13;;;5.20;;
70008;SDS011;59542;37.950;-122.338;2023-11-19T07:14:21;18.88;;;4.80;;
70008;SDS011;59542;37.950;-122.338;2023-11-19T07:16:48;20.33;;;5.50;;
70008;SDS011;59542;37.950;-122.338;2023-11-19T07:19:15;18.27;;;5.50;;
70008;SDS011;59542;37.950;-122.338;2023-11-19T07:21:42;21.23;;;4.90;;
70008;SDS011;59542;37.950;-122.338;2023-11-19T07:24:09;24.80;;;5.70;;
70008;SDS011;59542;37.950;-122.338;2023-11-19T07:26:42;13.55;;;4.90;;
70008;SDS011;59542;37.950;-122.338;2023-11-19T07:29:09;12.30;;;4.30;;
70008;SDS011;59542;37.950;-122.338;2023-11-19T07:31:36;13.70;;;4.43;;
70008;SDS011;59542;37.950;-122.338;2023-11-19T07:34:02;13.45;;;4.50;;
70008;SDS011;59542;37.950;-122.338;2023-11-19T07:36:30;12.48;;;3.92;;
70008;SDS011;59542;37.950;-122.338;2023-11-19T07:38:57;17.52;;;4.53;;
70008;SDS011;59542;37.950;-122.338;2023-11-19T07:41:24;16.42;;;4.43;;
70008;SDS011;59542;37.950;-122.338;2023-11-19T07:43:51;11.82;;;3.88;;
70008;SDS011;59542;37.950;-122.338;2023-11-19T07:46:18;9.10;;;3.30;;
70008;SDS011;59542;37.950;-122.338;2023-11-19T07:48:47;14.68;;;4.60;;
70008;SDS011;59542;37.950;-122.338;2023-11-19T07:51:13;17.65;;;4.28;;
70008;SDS011;59542;37.950;-122.338;2023-11-19T07:53:40;13.98;;;4.35;;
70008;SDS011;59542;37.950;-122.338;2023-11-19T07:56:07;10.70;;;4.68;;
70008;SDS011;59542;37.950;-122.338;2023-11-19T07:58:34;15.25;;;4.25;;
70008;SDS011;59542;37.950;-122.338;2023-11-19T08:01:00;11.80;;;3.80;;
70008;SDS011;59542;37.950;-122.338;2023-11-19T08:03:29;10.32;;;4.13;;
70008;SDS011;59542;37.950;-122.338;2023-11-19T08:05:56;13.27;;;3.97;;
70008;SDS011;59542;37.950;-122.338;2023-11-19T08:08:22;14.32;;;4.15;;
70008;SDS011;59542;37.950;-122.338;2023-11-19T08:10:48;11.48;;;3.72;;
70008;SDS011;59542;37.950;-122.338;2023-11-19T08:13:17;16.70;;;3.80;;
70008;SDS011;59542;37.950;-122.338;2023-11-19T08:15:45;12.52;;;4.03;;
70008;SDS011;59542;37.950;-122.338;2023-11-19T08:18:12;14.95;;;4.07;;
70008;SDS011;59542;37.950;-122.338;2023-11-19T08:20:38;16.48;;;4.10;;
70008;SDS011;59542;37.950;-122.338;2023-11-19T08:23:05;13.15;;;3.78;;
70008;SDS011;59542;37.950;-122.338;2023-11-19T08:25:31;16.63;;;4.57;;
70008;SDS011;59542;37.950;-122.338;2023-11-19T08:28:00;12.45;;;3.35;;
70008;SDS011;59542;37.950;-122.338;2023-11-19T08:30:28;7.45;;;2.75;;
70008;SDS011;59542;37.950;-122.338;2023-11-19T08:32:55;13.50;;;3.88;;
70008;SDS011;59542;37.950;-122.338;2023-11-19T08:35:22;11.25;;;3.38;;
70008;SDS011;59542;37.950;-122.338;2023-11-19T08:37:49;12.13;;;3.35;;
70008;SDS011;59542;37.950;-122.338;2023-11-19T08:40:15;8.23;;;3.33;;
70008;SDS011;59542;37.950;-122.338;2023-11-19T08:42:42;8.40;;;2.97;;
70008;SDS011;59542;37.950;-122.338;2023-11-19T08:45:08;8.40;;;2.83;;
70008;SDS011;59542;37.950;-122.338;2023-11-19T08:47:36;11.00;;;3.38;;
70008;SDS011;59542;37.950;-122.338;2023-11-19T08:50:02;6.00;;;2.83;;
70008;SDS011;59542;37.950;-122.338;2023-11-19T08:52:29;11.23;;;3.17;;
70008;SDS011;59542;37.950;-122.338;2023-11-19T08:54:56;8.38;;;2.90;;
70008;SDS011;59542;37.950;-122.338;2023-11-19T08:57:22;6.57;;;2.35;;
70008;SDS011;59542;37.950;-122.338;2023-11-19T08:59:49;7.47;;;2.53;;
70008;SDS011;59542;37.950;-122.338;2023-11-19T09:02:15;7.85;;;2.85;;
70008;SDS011;59542;37.950;-122.338;2023-11-19T09:04:41;9.68;;;3.35;;
70008;SDS011;59542;37.950;-122.338;2023-11-19T09:07:08;9.13;;;3.15;;
70008;SDS011;59542;37.950;-122.338;2023-11-19T09:09:37;9.05;;;3.17;;
70008;SDS011;59542;37.950;-122.338;2023-11-19T09:12:04;7.35;;;2.65;;
70008;SDS011;59542;37.950;-122.338;2023-11-19T09:14:31;8.18;;;2.70;;
70008;SDS011;59542;37.950;-122.338;2023-11-19T09:16:57;9.38;;;3.08;;
70008;SDS011;59542;37.950;-122.338;2023-11-19T09:19:24;5.50;;;2.95;;
70008;SDS011;59542;37.950;-122.338;2023-11-19T09:21:51;11.00;;;3.10;;
70008;SDS011;59542;37.950;-122.338;2023-11-19T09:24:18;7.45;;;3.17;;
70008;SDS011;59542;37.950;-122.338;2023-11-19T09:26:44;9.27;;;2.92;;
70008;SDS011;59542;37.950;-122.338;2023-11-19T09:29:11;12.82;;;3.15;;
70008;SDS011;59542;37.950;-122.338;2023-11-19T09:31:39;13.32;;;3.58;;
70008;SDS011;59542;37.950;-122.338;2023-11-19T09:34:06;8.18;;;2.85;;
70008;SDS011;59542;37.950;-122.338;2023-11-19T09:36:33;7.85;;;2.92;;
70008;SDS011;59542;37.950;-122.338;2023-11-19T09:38:59;9.82;;;3.15;;
70008;SDS011;59542;37.950;-122.338;2023-11-19T09:41:26;7.25;;;2.85;;
70008;SDS011;59542;37.950;-122.338;2023-11-19T09:43:53;6.05;;;1.80;;
70008;SDS011;59542;37.950;-122.338;2023-11-19T09:46:19;11.93;;;2.95;;
70008;SDS011;59542;37.950;-122.338;2023-11-19T09:48:49;11.48;;;3.63;;
70008;SDS011;59542;37.950;-122.338;2023-11-19T09:51:20;6.60;;;2.80;;
70008;SDS011;59542;37.950;-122.338;2023-11-19T09:53:47;9.27;;;3.42;;
70008;SDS011;59542;37.950;-122.338;2023-11-19T09:56:14;7.45;;;3.00;;
70008;SDS011;59542;37.950;-122.338;2023-11-19T09:58:42;9.60;;;3.25;;
70008;SDS011;59542;37.950;-122.338;2023-11-19T10:01:08;7.53;;;2.78;;
70008;SDS011;59542;37.950;-122.338;2023-11-19T10:03:37;9.02;;;2.65;;
70008;SDS011;59542;37.950;-122.338;2023-11-19T10:06:08;11.05;;;2.72;;
70008;SDS011;59542;37.950;-122.338;2023-11-19T10:08:38;10.20;;;2.70;;
70008;SDS011;59542;37.950;-122.338;2023-11-19T10:11:05;13.25;;;2.92;;
70008;SDS011;59542;37.950;-122.338;2023-11-19T10:13:33;7.90;;;2.72;;
70008;SDS011;59542;37.950;-122.338;2023-11-19T10:16:22;6.65;;;2.55;;
70008;SDS011;59542;37.950;-122.338;2023-11-19T10:18:59;9.52;;;3.20;;
70008;SDS011;59542;37.950;-122.338;2023-11-19T10:21:25;11.20;;;3.25;;
70008;SDS011;59542;37.950;-122.338;2023-11-19T10:23:56;9.93;;;2.92;;
70008;SDS011;59542;37.950;-122.338;2023-11-19T10:26:25;6.72;;;3.33;;
70008;SDS011;59542;37.950;-122.338;2023-11-19T10:28:52;6.78;;;2.28;;
70008;SDS011;59542;37.950;-122.338;2023-11-19T10:31:19;5.55;;;2.30;;
70008;SDS011;59542;37.950;-122.338;2023-11-19T10:33:54;6.40;;;2.50;;
70008;SDS011;59542;37.950;-122.338;2023-11-19T10:36:21;7.05;;;2.40;;
70008;SDS011;59542;37.950;-122.338;2023-11-19T10:38:55;5.15;;;2.38;;
70008;SDS011;59542;37.950;-122.338;2023-11-19T10:41:29;4.80;;;2.38;;
70008;SDS011;59542;37.950;-122.338;2023-11-19T10:43:56;5.65;;;2.42;;
70008;SDS011;59542;37.950;-122.338;2023-11-19T10:46:23;5.32;;;2.67;;
70008;SDS011;59542;37.950;-122.338;2023-11-19T10:49:08;8.98;;;2.78;;
70008;SDS011;59542;37.950;-122.338;2023-11-19T10:51:36;5.88;;;2.53;;
70008;SDS011;59542;37.950;-122.338;2023-11-19T10:54:07;10.07;;;3.13;;
70008;SDS011;59542;37.950;-122.338;2023-11-19T10:56:34;6.40;;;2.47;;
70008;SDS011;59542;37.950;-122.338;2023-11-19T10:59:01;6.03;;;2.10;;
70008;SDS011;59542;37.950;-122.338;2023-11-19T11:01:50;12.38;;;3.10;;
70008;SDS011;59542;37.950;-122.338;2023-11-19T11:04:22;7.40;;;2.35;;
70008;SDS011;59542;37.950;-122.338;2023-11-19T11:06:51;12.93;;;3.45;;
70008;SDS011;59542;37.950;-122.338;2023-11-19T11:09:19;16.98;;;2.92;;
70008;SDS011;59542;37.950;-122.338;2023-11-19T11:11:46;7.97;;;2.47;;
70008;SDS011;59542;37.950;-122.338;2023-11-19T11:14:13;9.23;;;2.42;;
70008;SDS011;59542;37.950;-122.338;2023-11-19T11:16:44;13.48;;;2.90;;
70008;SDS011;59542;37.950;-122.338;2023-11-19T11:19:15;12.05;;;2.95;;
70008;SDS011;59542;37.950;-122.338;2023-11-19T11:21:44;9.13;;;2.65;;
70008;SDS011;59542;37.950;-122.338;2023-11-19T11:24:20;9.57;;;3.42;;
70008;SDS011;59542;37.950;-122.338;2023-11-19T11:38:47;12.85;;;3.50;;
70008;SDS011;59542;37.950;-122.338;2023-11-19T11:41:19;11.18;;;3.25;;
70008;SDS011;59542;37.950;-122.338;2023-11-19T11:49:05;8.90;;;2.80;;
70008;SDS011;59542;37.950;-122.338;2023-11-19T11:54:11;7.85;;;2.97;;
70008;SDS011;59542;37.950;-122.338;2023-11-19T11:57:08;9.68;;;3.28;;
70008;SDS011;59542;37.950;-122.338;2023-11-19T12:02:14;12.02;;;3.22;;
70008;SDS011;59542;37.950;-122.338;2023-11-19T12:04:45;10.35;;;3.20;;
70008;SDS011;59542;37.950;-122.338;2023-11-19T12:07:14;8.02;;;2.65;;
70008;SDS011;59542;37.950;-122.338;2023-11-19T12:09:46;8.05;;;2.70;;
70008;SDS011;59542;37.950;-122.338;2023-11-19T12:12:32;7.88;;;2.20;;
70008;SDS011;59542;37.950;-122.338;2023-11-19T12:20:02;7.47;;;2.72;;
70008;SDS011;59542;37.950;-122.338;2023-11-19T12:22:40;5.35;;;2.35;;
70008;SDS011;59542;37.950;-122.338;2023-11-19T12:25:08;7.32;;;2.40;;
70008;SDS011;59542;37.950;-122.338;2023-11-19T12:27:35;6.78;;;2.13;;
70008;SDS011;59542;37.950;-122.338;2023-11-19T12:30:03;6.18;;;2.22;;
70008;SDS011;59542;37.950;-122.338;2023-11-19T12:32:37;8.32;;;2.38;;
70008;SDS011;59542;37.950;-122.338;2023-11-19T12:35:05;9.00;;;2.75;;
70008;SDS011;59542;37.950;-122.338;2023-11-19T12:37:32;9.63;;;2.63;;
70008;SDS011;59542;37.950;-122.338;2023-11-19T12:40:00;5.72;;;2.17;;
70008;SDS011;59542;37.950;-122.338;2023-11-19T12:42:39;8.65;;;2.15;;
70008;SDS011;59542;37.950;-122.338;2023-11-19T12:45:06;4.93;;;1.80;;
70008;SDS011;59542;37.950;-122.338;2023-11-19T12:47:36;7.82;;;2.22;;
70008;SDS011;59542;37.950;-122.338;2023-11-19T12:50:03;6.82;;;2.17;;
70008;SDS011;59542;37.950;-122.338;2023-11-19T12:52:30;8.50;;;2.00;;
70008;SDS011;59542;37.950;-122.338;2023-11-19T12:54:56;8.65;;;2.70;;
70008;SDS011;59542;37.950;-122.338;2023-11-19T12:57:41;9.77;;;2.45;;
70008;SDS011;59542;37.950;-122.338;2023-11-19T13:00:18;10.65;;;2.33;;
70008;SDS011;59542;37.950;-122.338;2023-11-19T13:02:49;6.88;;;2.17;;
70008;SDS011;59542;37.950;-122.338;2023-11-19T13:08:02;7.93;;;3.00;;
70008;SDS011;59542;37.950;-122.338;2023-11-19T13:10:30;6.63;;;2.70;;
70008;SDS011;59542;37.950;-122.338;2023-11-19T13:13:19;8.48;;;2.55;;
70008;SDS011;59542;37.950;-122.338;2023-11-19T13:15:45;5.15;;;2.33;;
70008;SDS011;59542;37.950;-122.338;2023-11-19T13:18:12;5.15;;;2.05;;
70008;SDS011;59542;37.950;-122.338;2023-11-19T13:20:41;7.22;;;2.40;;
70008;SDS011;59542;37.950;-122.338;2023-11-19T13:23:08;10.82;;;2.83;;
70008;SDS011;59542;37.950;-122.338;2023-11-19T13:25:35;6.90;;;2.35;;
70008;SDS011;59542;37.950;-122.338;2023-11-19T13:28:02;7.90;;;2.45;;
70008;SDS011;59542;37.950;-122.338;2023-11-19T13:30:29;6.22;;;2.53;;
70008;SDS011;59542;37.950;-122.338;2023-11-19T13:32:55;11.48;;;3.70;;
70008;SDS011;59542;37.950;-122.338;2023-11-19T13:35:21;11.40;;;2.75;;
70008;SDS011;59542;37.950;-122.338;2023-11-19T13:37:48;6.22;;;2.63;;
70008;SDS011;59542;37.950;-122.338;2023-11-19T13:40:14;8.95;;;3.17;;
70008;SDS011;59542;37.950;-122.338;2023-11-19T13:42:41;34.50;;;3.33;;
70008;SDS011;59542;37.950;-122.338;2023-11-19T13:45:11;4.72;;;2.33;;
70008;SDS011;59542;37.950;-122.338;2023-11-19T13:47:39;7.47;;;2.22;;
70008;SDS011;59542;37.950;-122.338;2023-11-19T13:50:09;5.70;;;2.10;;
70008;SDS011;59542;37.950;-122.338;2023-11-19T13:52:41;6.22;;;2.33;;
70008;SDS011;59542;37.950;-122.338;2023-11-19T13:55:09;7.53;;;2.70;;
70008;SDS011;59542;37.950;-122.338;2023-11-19T13:57:36;4.88;;;1.90;;
70008;SDS011;59542;37.950;-122.338;2023-11-19T14:00:03;4.88;;;1.92;;
70008;SDS011;59542;37.950;-122.338;2023-11-19T14:02:42;4.95;;;2.22;;
70008;SDS011;59542;37.950;-122.338;2023-11-19T14:05:09;6.93;;;2.58;;
70008;SDS011;59542;37.950;-122.338;2023-11-19T14:07:38;7.72;;;2.50;;
70008;SDS011;59542;37.950;-122.338;2023-11-19T14:10:06;7.93;;;2.30;;
70008;SDS011;59542;37.950;-122.338;2023-11-19T14:12:42;7.38;;;2.53;;
70008;SDS011;59542;37.950;-122.338;2023-11-19T14:15:09;5.60;;;2.15;;
70008;SDS011;59542;37.950;-122.338;2023-11-19T14:17:38;7.13;;;2.22;;
70008;SDS011;59542;37.950;-122.338;2023-11-19T14:20:05;8.88;;;2.28;;
70008;SDS011;59542;37.950;-122.338;2023-11-19T14:22:50;10.70;;;2.47;;
70008;SDS011;59542;37.950;-122.338;2023-11-19T14:25:18;8.43;;;2.42;;
70008;SDS011;59542;37.950;-122.338;2023-11-19T14:27:44;7.00;;;2.20;;
70008;SDS011;59542;37.950;-122.338;2023-11-19T14:30:12;9.77;;;2.58;;
70008;SDS011;59542;37.950;-122.338;2023-11-19T14:32:39;11.40;;;2.85;;
70008;SDS011;59542;37.950;-122.338;2023-11-19T14:35:11;9.07;;;2.40;;
70008;SDS011;59542;37.950;-122.338;2023-11-19T14:37:37;8.38;;;2.70;;
70008;SDS011;59542;37.950;-122.338;2023-11-19T14:40:03;7.38;;;2.22;;